Time;durP1;ratioP1;P1;durP2;ratioP2;P2;SDS_P1;SDS_P2;PMS_P1;PMS_P2;Temp;Humidity;BMP_temperature;BMP_pressure;BME280_temperature;BME280_humidity;BME280_pressure;Samples;Min_cycle;Max_cycle;Signal;HPM_P1;HPM_P2
2022/06/05 00:00:31;;;;;;;4.75;2.95;;;;;;;;;;5014187;28;20108;-78
2022/06/05 00:03:11;;;;;;;5.05;2.53;;;;;;;;;;4994448;28;20034;-78
2022/06/05 00:06:00;;;;;;;3.45;2.58;;;;;;;;;;5011698;28;20412;-78
2022/06/05 00:08:44;;;;;;;3.83;2.53;;;;;;;;;;4994206;28;20049;-79
2022/06/05 00:11:10;;;;;;;5.40;2.60;;;;;;;;;;4979295;28;20038;-79
2022/06/05 00:13:51;;;;;;;9.63;3.10;;;;;;;;;;4994334;28;20455;-79
2022/06/05 00:16:21;;;;;;;3.53;2.60;;;;;;;;;;4994506;28;20080;-79
2022/06/05 00:18:46;;;;;;;4.15;2.95;;;;;;;;;;4978684;28;20038;-79
2022/06/05 00:21:12;;;;;;;4.40;2.45;;;;;;;;;;4994246;28;20037;-79
2022/06/05 00:23:38;;;;;;;3.85;2.45;;;;;;;;;;4977896;28;20046;-78
2022/06/05 00:26:22;;;;;;;5.40;2.53;;;;;;;;;;4981176;28;20037;-78
2022/06/05 00:29:18;;;;;;;5.78;3.15;;;;;;;;;;5031149;28;20134;-79
2022/06/05 00:32:08;;;;;;;3.92;2.58;;;;;;;;;;5030032;28;20171;-78
2022/06/05 00:34:34;;;;;;;3.30;2.13;;;;;;;;;;5016689;28;20068;-78
2022/06/05 00:37:14;;;;;;;3.72;2.25;;;;;;;;;;5013570;28;20049;-78
2022/06/05 00:40:09;;;;;;;4.32;2.38;;;;;;;;;;5015564;28;20045;-78
2022/06/05 00:42:35;;;;;;;5.22;2.50;;;;;;;;;;5034070;28;20064;-78
2022/06/05 00:45:05;;;;;;;4.15;2.10;;;;;;;;;;5017310;28;20496;-78
2022/06/05 00:47:31;;;;;;;3.70;2.10;;;;;;;;;;5017093;28;20036;-78
2022/06/05 00:50:05;;;;;;;4.63;2.30;;;;;;;;;;5017516;28;20044;-78
2022/06/05 00:52:32;;;;;;;3.63;2.25;;;;;;;;;;5001841;28;20030;-78
2022/06/05 00:54:57;;;;;;;4.30;2.70;;;;;;;;;;5017137;28;20091;-78
2022/06/05 00:57:23;;;;;;;4.32;2.72;;;;;;;;;;4997107;28;20447;-78
2022/06/05 00:59:49;;;;;;;3.67;2.40;;;;;;;;;;4997544;28;20575;-78
2022/06/05 01:02:14;;;;;;;3.60;2.33;;;;;;;;;;5008188;28;20499;-78
2022/06/05 01:04:41;;;;;;;4.00;2.10;;;;;;;;;;5013706;28;20042;-78
2022/06/05 01:07:07;;;;;;;4.60;2.80;;;;;;;;;;5013475;28;20096;-78
2022/06/05 01:09:33;;;;;;;3.03;1.90;;;;;;;;;;5013370;28;20132;-78
2022/06/05 01:12:13;;;;;;;4.30;2.40;;;;;;;;;;5013715;28;20033;-78
2022/06/05 01:14:56;;;;;;;2.85;2.10;;;;;;;;;;5030086;28;20412;-78
2022/06/05 01:17:39;;;;;;;3.67;1.70;;;;;;;;;;5029672;28;20121;-78
2022/06/05 01:20:14;;;;;;;3.17;2.15;;;;;;;;;;5013459;28;20192;-78
2022/06/05 01:23:13;;;;;;;2.95;1.90;;;;;;;;;;5029815;28;20065;-78
2022/06/05 01:26:03;;;;;;;3.33;1.92;;;;;;;;;;5014245;28;20513;-79
2022/06/05 01:28:31;;;;;;;4.75;2.30;;;;;;;;;;5033067;28;20032;-78
2022/06/05 01:31:11;;;;;;;3.15;1.85;;;;;;;;;;5016867;28;20048;-78
2022/06/05 01:33:41;;;;;;;5.60;2.25;;;;;;;;;;5000986;28;20555;-78
2022/06/05 01:36:17;;;;;;;3.60;1.52;;;;;;;;;;5016691;28;20037;-78
2022/06/05 01:39:06;;;;;;;3.03;2.00;;;;;;;;;;4999712;28;20038;-78
2022/06/05 01:41:39;;;;;;;2.70;1.90;;;;;;;;;;5032814;28;20491;-78
2022/06/05 01:44:05;;;;;;;3.15;1.90;;;;;;;;;;5016401;28;20609;-78
2022/06/05 01:46:35;;;;;;;5.25;2.22;;;;;;;;;;5016563;28;20041;-78
2022/06/05 01:49:22;;;;;;;3.20;1.88;;;;;;;;;;5016248;28;20041;-78
2022/06/05 01:52:03;;;;;;;2.80;1.83;;;;;;;;;;5011667;28;20062;-78
2022/06/05 01:54:31;;;;;;;3.35;1.88;;;;;;;;;;5012518;28;20099;-78
2022/06/05 01:56:58;;;;;;;3.33;2.20;;;;;;;;;;5012817;28;20034;-78
2022/06/05 01:59:45;;;;;;;3.55;2.20;;;;;;;;;;4996327;28;20034;-78
2022/06/05 02:02:13;;;;;;;2.50;1.83;;;;;;;;;;5028512;28;20052;-78
2022/06/05 02:04:42;;;;;;;4.00;1.98;;;;;;;;;;5016147;28;20037;-78
2022/06/05 02:07:16;;;;;;;3.60;1.90;;;;;;;;;;5015869;28;20038;-78
2022/06/05 02:09:49;;;;;;;3.40;1.88;;;;;;;;;;5016097;28;20120;-78
2022/06/05 02:12:15;;;;;;;4.32;2.15;;;;;;;;;;5015971;28;20033;-78
2022/06/05 02:14:42;;;;;;;3.78;2.55;;;;;;;;;;5015640;28;20100;-78
2022/06/05 02:17:08;;;;;;;3.97;2.08;;;;;;;;;;5000137;28;20155;-78
2022/06/05 02:19:34;;;;;;;2.38;1.70;;;;;;;;;;5016097;28;20415;-78
2022/06/05 02:22:04;;;;;;;2.92;1.75;;;;;;;;;;4999290;28;20097;-78
2022/06/05 02:24:29;;;;;;;3.90;2.08;;;;;;;;;;5015831;28;20065;-78
2022/06/05 02:26:57;;;;;;;3.70;2.00;;;;;;;;;;5004778;28;20427;-78
2022/06/05 02:29:23;;;;;;;3.42;1.90;;;;;;;;;;4995908;28;20104;-78
2022/06/05 02:32:10;;;;;;;3.05;1.92;;;;;;;;;;4995922;28;20455;-78
2022/06/05 02:34:42;;;;;;;2.70;1.60;;;;;;;;;;5013332;28;20037;-78
2022/06/05 02:37:26;;;;;;;4.18;2.42;;;;;;;;;;4995550;28;20042;-78
2022/06/05 02:40:02;;;;;;;3.53;1.70;;;;;;;;;;5013354;28;20045;-78
2022/06/05 02:42:38;;;;;;;3.13;1.83;;;;;;;;;;4996110;28;20040;-78
2022/06/05 02:45:28;;;;;;;2.58;1.90;;;;;;;;;;5012083;28;20042;-78
2022/06/05 02:48:08;;;;;;;2.80;1.70;;;;;;;;;;4985650;28;20038;-78
2022/06/05 02:50:43;;;;;;;2.63;1.95;;;;;;;;;;5020552;28;20083;-78
2022/06/05 02:53:09;;;;;;;3.38;2.00;;;;;;;;;;5034401;28;20553;-78
2022/06/05 02:55:34;;;;;;;3.72;2.40;;;;;;;;;;5033240;28;20075;-78
2022/06/05 02:57:59;;;;;;;4.78;2.22;;;;;;;;;;5014767;28;20041;-78
2022/06/05 03:00:26;;;;;;;3.60;2.00;;;;;;;;;;5015261;28;20041;-78
2022/06/05 03:05:36;;;;;;;3.50;1.65;;;;;;;;;;4997786;28;20044;-78
2022/06/05 03:08:01;;;;;;;4.03;2.40;;;;;;;;;;4995002;28;20116;-78
2022/06/05 03:10:27;;;;;;;3.28;2.00;;;;;;;;;;4994863;28;20041;-78
2022/06/05 03:12:52;;;;;;;4.07;2.55;;;;;;;;;;4995134;28;20037;-78
2022/06/05 03:15:17;;;;;;;3.03;2.40;;;;;;;;;;4994898;28;20042;-78
2022/06/05 03:17:43;;;;;;;2.92;2.63;;;;;;;;;;4995369;28;20034;-78
2022/06/05 03:20:10;;;;;;;2.65;2.15;;;;;;;;;;4994845;28;20459;-78
2022/06/05 03:22:35;;;;;;;3.83;2.22;;;;;;;;;;4994980;28;20065;-78
2022/06/05 03:25:00;;;;;;;3.97;2.70;;;;;;;;;;4978624;28;20488;-78
2022/06/05 03:27:27;;;;;;;3.55;3.20;;;;;;;;;;5009440;28;20029;-78
2022/06/05 03:29:52;;;;;;;3.63;2.67;;;;;;;;;;5014695;28;20603;-78
2022/06/05 03:32:17;;;;;;;3.00;2.45;;;;;;;;;;5014422;28;20132;-78
2022/06/05 03:34:43;;;;;;;3.85;2.90;;;;;;;;;;5030473;28;20033;-79
2022/06/05 03:37:08;;;;;;;3.88;2.30;;;;;;;;;;5030640;28;20044;-78
2022/06/05 03:39:34;;;;;;;6.68;3.00;;;;;;;;;;5013896;28;20574;-79
2022/06/05 03:41:59;;;;;;;4.07;2.63;;;;;;;;;;5014215;28;20045;-78
2022/06/05 03:44:28;;;;;;;3.55;2.33;;;;;;;;;;5014198;28;20038;-78
2022/06/05 03:46:53;;;;;;;3.53;3.15;;;;;;;;;;5014672;28;20033;-78
2022/06/05 03:49:19;;;;;;;3.72;2.80;;;;;;;;;;5014247;28;20179;-78
2022/06/05 03:51:45;;;;;;;5.22;2.95;;;;;;;;;;5013762;28;20048;-78
2022/06/05 03:54:10;;;;;;;4.07;2.70;;;;;;;;;;5014391;28;20056;-78
2022/06/05 03:56:35;;;;;;;4.05;2.75;;;;;;;;;;4994110;28;20038;-78
2022/06/05 03:59:01;;;;;;;3.40;2.85;;;;;;;;;;4994570;28;20042;-78
2022/06/05 04:01:27;;;;;;;4.70;3.33;;;;;;;;;;4998510;28;20037;-78
2022/06/05 04:03:53;;;;;;;3.35;2.67;;;;;;;;;;5026610;28;20109;-78
2022/06/05 04:06:21;;;;;;;3.83;3.00;;;;;;;;;;5010564;28;20129;-78
2022/06/05 04:08:46;;;;;;;3.47;2.95;;;;;;;;;;5010337;28;20042;-77
2022/06/05 04:11:13;;;;;;;4.80;3.00;;;;;;;;;;5010720;28;20064;-78
2022/06/05 04:13:38;;;;;;;3.00;2.70;;;;;;;;;;4994524;28;20034;-78
2022/06/05 04:16:30;;;;;;;4.20;3.03;;;;;;;;;;5014670;28;20511;-78
2022/06/05 04:18:56;;;;;;;4.68;3.30;;;;;;;;;;5014539;28;20046;-78
2022/06/05 04:21:24;;;;;;;4.70;3.33;;;;;;;;;;5030972;28;20044;-78
2022/06/05 04:23:49;;;;;;;6.00;3.92;;;;;;;;;;5014578;28;20057;-78
2022/06/05 04:26:17;;;;;;;4.10;3.17;;;;;;;;;;5017826;28;20096;-78
2022/06/05 04:28:42;;;;;;;3.85;3.45;;;;;;;;;;5017901;28;20033;-78
2022/06/05 04:31:33;;;;;;;4.18;3.50;;;;;;;;;;5018057;28;20042;-78
2022/06/05 04:34:00;;;;;;;5.00;3.25;;;;;;;;;;5034134;28;20094;-78
2022/06/05 04:36:25;;;;;;;4.25;3.30;;;;;;;;;;5017648;28;20115;-78
2022/06/05 04:38:51;;;;;;;3.08;2.67;;;;;;;;;;5017619;28;20401;-78
2022/06/05 04:41:18;;;;;;;4.47;3.70;;;;;;;;;;5017530;28;20053;-78
2022/06/05 04:43:43;;;;;;;3.78;3.10;;;;;;;;;;5017643;28;20083;-78
2022/06/05 04:46:09;;;;;;;4.85;3.53;;;;;;;;;;5017423;28;20049;-78
2022/06/05 04:48:34;;;;;;;4.47;3.38;;;;;;;;;;5017054;28;20041;-78
2022/06/05 04:51:07;;;;;;;4.72;3.53;;;;;;;;;;5017147;28;20048;-78
2022/06/05 04:53:32;;;;;;;;;;;;;;;;;;5017519;28;20029;-78
2022/06/05 04:55:57;;;;;;;6.35;4.18;;;;;;;;;;5030435;28;20303;-79
2022/06/05 04:58:23;;;;;;;4.00;3.50;;;;;;;;;;4997627;28;20511;-79
2022/06/05 05:00:48;;;;;;;4.75;3.63;;;;;;;;;;4999798;28;20115;-79
2022/06/05 05:03:14;;;;;;;3.70;3.38;;;;;;;;;;5033368;28;20625;-78
2022/06/05 05:05:39;;;;;;;4.22;3.60;;;;;;;;;;5033463;28;20046;-79
2022/06/05 05:08:05;;;;;;;5.40;3.63;;;;;;;;;;5016963;28;20137;-78
2022/06/05 05:10:30;;;;;;;5.38;3.67;;;;;;;;;;5001037;28;20049;-79
2022/06/05 05:12:56;;;;;;;3.60;3.25;;;;;;;;;;5016887;28;20071;-79
2022/06/05 05:15:21;;;;;;;4.68;4.10;;;;;;;;;;5033461;28;20030;-79
2022/06/05 05:17:47;;;;;;;4.82;3.80;;;;;;;;;;5000109;28;20078;-79
2022/06/05 05:20:12;;;;;;;4.15;3.38;;;;;;;;;;5017139;28;20037;-79
2022/06/05 05:22:38;;;;;;;3.63;3.20;;;;;;;;;;5016638;28;20049;-78
2022/06/05 05:25:05;;;;;;;4.57;3.95;;;;;;;;;;5016381;28;20030;-79
2022/06/05 05:27:31;;;;;;;3.83;3.42;;;;;;;;;;5001553;28;20046;-79
2022/06/05 05:29:56;;;;;;;5.40;4.43;;;;;;;;;;4997081;28;20084;-78
2022/06/05 05:32:22;;;;;;;5.18;3.97;;;;;;;;;;4996842;28;20050;-78
2022/06/05 05:34:47;;;;;;;4.82;3.63;;;;;;;;;;4997220;28;20113;-78
2022/06/05 05:37:12;;;;;;;3.80;3.38;;;;;;;;;;4996717;28;20050;-78
2022/06/05 05:42:22;;;;;;;5.05;3.58;;;;;;;;;;4999494;28;20034;-79
2022/06/05 05:44:48;;;;;;;4.97;3.75;;;;;;;;;;4996105;28;20034;-78
2022/06/05 05:47:14;;;;;;;4.60;4.13;;;;;;;;;;4996716;28;20038;-78
2022/06/05 05:49:40;;;;;;;4.03;3.20;;;;;;;;;;4990419;28;20041;-79
2022/06/05 05:52:06;;;;;;;4.00;3.60;;;;;;;;;;5019559;28;20101;-79
2022/06/05 05:54:35;;;;;;;5.55;3.83;;;;;;;;;;5003283;28;20036;-78
2022/06/05 05:57:00;;;;;;;5.35;3.75;;;;;;;;;;5019708;28;20046;-78
2022/06/05 05:59:25;;;;;;;3.88;3.42;;;;;;;;;;4996016;28;20037;-78
2022/06/05 06:01:51;;;;;;;4.43;3.95;;;;;;;;;;5003815;28;20112;-78
2022/06/05 06:04:16;;;;;;;5.38;3.58;;;;;;;;;;4996499;28;20029;-79
2022/06/05 06:06:43;;;;;;;5.80;3.92;;;;;;;;;;5029095;28;20046;-79
2022/06/05 06:09:08;;;;;;;4.72;3.25;;;;;;;;;;5012355;28;20512;-79
2022/06/05 06:11:34;;;;;;;6.57;3.80;;;;;;;;;;5012678;28;20038;-79
2022/06/05 06:13:59;;;;;;;4.50;3.60;;;;;;;;;;5012368;28;20034;-79
2022/06/05 06:16:26;;;;;;;4.82;3.65;;;;;;;;;;5012425;28;20056;-78
2022/06/05 06:18:52;;;;;;;4.38;3.95;;;;;;;;;;5012598;28;20052;-79
2022/06/05 06:21:18;;;;;;;5.18;3.72;;;;;;;;;;5012495;28;20492;-78
2022/06/05 06:23:43;;;;;;;5.43;4.30;;;;;;;;;;4995526;28;20029;-78
2022/06/05 06:26:09;;;;;;;4.80;3.50;;;;;;;;;;4999094;28;20045;-79
2022/06/05 06:28:34;;;;;;;4.90;3.95;;;;;;;;;;5014774;28;20415;-78
2022/06/05 06:31:07;;;;;;;4.55;3.65;;;;;;;;;;5015974;28;20050;-79
2022/06/05 06:33:32;;;;;;;4.32;3.58;;;;;;;;;;5015665;28;20030;-78
2022/06/05 06:36:06;;;;;;;6.10;4.15;;;;;;;;;;5031643;28;20087;-78
2022/06/05 06:38:32;;;;;;;6.80;4.03;;;;;;;;;;5015088;28;20034;-78
2022/06/05 06:41:02;;;;;;;4.43;3.65;;;;;;;;;;5015113;28;20103;-79
2022/06/05 06:43:27;;;;;;;4.00;3.53;;;;;;;;;;5015073;28;20029;-78
2022/06/05 06:45:53;;;;;;;5.57;4.10;;;;;;;;;;4999061;28;20095;-79
2022/06/05 06:48:18;;;;;;;4.60;3.70;;;;;;;;;;5031616;28;20434;-79
2022/06/05 06:50:45;;;;;;;4.68;3.70;;;;;;;;;;5014976;28;20037;-79
2022/06/05 06:53:10;;;;;;;4.72;4.10;;;;;;;;;;4999066;28;20068;-78
2022/06/05 06:55:36;;;;;;;6.20;4.85;;;;;;;;;;4998179;28;20069;-78
2022/06/05 06:58:01;;;;;;;4.53;3.95;;;;;;;;;;5014629;28;20404;-78
2022/06/05 07:00:26;;;;;;;4.22;3.53;;;;;;;;;;5015061;28;20045;-79
2022/06/05 07:02:52;;;;;;;5.40;3.53;;;;;;;;;;4995845;28;20049;-78
2022/06/05 07:05:17;;;;;;;5.47;3.97;;;;;;;;;;4995112;28;20046;-78
2022/06/05 07:07:43;;;;;;;4.43;3.80;;;;;;;;;;4994967;28;20038;-78
2022/06/05 07:10:08;;;;;;;4.22;3.70;;;;;;;;;;4994927;28;20049;-78
2022/06/05 07:12:34;;;;;;;4.22;3.83;;;;;;;;;;4994836;28;20555;-79
2022/06/05 07:15:00;;;;;;;4.40;3.40;;;;;;;;;;4995214;28;20161;-79
2022/06/05 07:17:27;;;;;;;5.53;3.72;;;;;;;;;;4995021;28;20030;-79
2022/06/05 07:19:52;;;;;;;5.35;3.75;;;;;;;;;;4979539;28;20377;-79
2022/06/05 07:22:18;;;;;;;4.03;3.33;;;;;;;;;;4995050;28;20092;-78
2022/06/05 07:24:43;;;;;;;4.50;3.92;;;;;;;;;;4978313;28;20036;-79
2022/06/05 07:27:08;;;;;;;4.35;3.42;;;;;;;;;;5006569;28;20037;-78
2022/06/05 07:29:34;;;;;;;4.53;3.30;;;;;;;;;;5014283;28;20037;-79
2022/06/05 07:31:59;;;;;;;4.05;3.45;;;;;;;;;;5014654;28;20420;-79
2022/06/05 07:34:25;;;;;;;4.82;3.83;;;;;;;;;;5014319;28;20063;-79
2022/06/05 07:36:51;;;;;;;3.83;2.88;;;;;;;;;;5014121;28;20037;-79
2022/06/05 07:39:16;;;;;;;5.20;3.45;;;;;;;;;;5013976;28;20138;-79
2022/06/05 07:41:41;;;;;;;5.10;3.85;;;;;;;;;;5014013;28;20048;-79
2022/06/05 07:44:07;;;;;;;3.50;3.20;;;;;;;;;;5030784;28;20040;-79
2022/06/05 07:46:33;;;;;;;3.80;3.50;;;;;;;;;;5014302;28;20036;-79
2022/06/05 07:48:58;;;;;;;3.83;3.40;;;;;;;;;;5013636;28;20041;-79
2022/06/05 07:54:27;;;;;;;3.40;3.00;;;;;;;;;;5016966;28;20026;-80
2022/06/05 07:57:06;;;;;;;4.57;3.20;;;;;;;;;;5011351;28;20030;-80
2022/06/05 07:59:33;;;;;;;4.22;3.42;;;;;;;;;;4996288;28;20026;-79
2022/06/05 08:02:03;;;;;;;3.90;3.50;;;;;;;;;;4998493;28;20128;-80
2022/06/05 08:04:29;;;;;;;4.07;3.15;;;;;;;;;;5014440;28;20037;-79
2022/06/05 08:06:55;;;;;;;5.72;3.13;;;;;;;;;;5013942;28;20412;-80
2022/06/05 08:09:20;;;;;;;3.40;3.10;;;;;;;;;;5014183;28;20058;-79
2022/06/05 08:11:46;;;;;;;3.97;3.03;;;;;;;;;;4997477;28;20040;-79
2022/06/05 08:14:12;;;;;;;3.97;3.17;;;;;;;;;;5013655;28;20037;-79
2022/06/05 08:16:43;;;;;;;4.90;3.30;;;;;;;;;;5013979;28;20060;-80
2022/06/05 08:19:09;;;;;;;4.90;3.05;;;;;;;;;;5015194;28;20088;-80
2022/06/05 08:21:34;;;;;;;4.90;3.90;;;;;;;;;;5014021;28;20095;-80
2022/06/05 08:23:59;;;;;;;3.55;3.25;;;;;;;;;;5013640;28;20033;-80
2022/06/05 08:26:25;;;;;;;3.72;3.33;;;;;;;;;;5013474;28;20041;-79
2022/06/05 08:28:50;;;;;;;3.53;3.15;;;;;;;;;;5013718;28;20034;-79
2022/06/05 08:31:16;;;;;;;3.33;2.78;;;;;;;;;;5013875;28;20048;-79
2022/06/05 08:33:42;;;;;;;3.33;2.83;;;;;;;;;;5014098;28;20041;-79
2022/06/05 08:36:07;;;;;;;4.20;3.22;;;;;;;;;;5014327;28;20041;-78
2022/06/05 08:41:32;;;;;;;3.45;3.08;;;;;;;;;;5016352;28;20048;-78
2022/06/05 08:44:02;;;;;;;4.10;3.00;;;;;;;;;;5031025;28;20057;-78
2022/06/05 08:46:52;;;;;;;3.58;3.13;;;;;;;;;;5013624;28;20085;-78
2022/06/05 08:49:38;;;;;;;3.85;2.95;;;;;;;;;;5029980;28;20030;-78
2022/06/05 08:52:26;;;;;;;3.88;2.85;;;;;;;;;;5013875;28;20041;-78
2022/06/05 08:55:09;;;;;;;3.97;3.55;;;;;;;;;;5031006;28;20030;-77
2022/06/05 08:57:43;;;;;;;3.35;2.95;;;;;;;;;;5011101;28;20041;-78
2022/06/05 09:00:14;;;;;;;4.35;3.42;;;;;;;;;;4995612;28;20077;-78
2022/06/05 09:03:02;;;;;;;5.25;3.10;;;;;;;;;;5011578;28;20488;-78
2022/06/05 09:05:34;;;;;;;3.45;3.00;;;;;;;;;;4997665;28;20408;-78
2022/06/05 09:08:02;;;;;;;5.30;3.27;;;;;;;;;;4997503;28;20518;-78
2022/06/05 09:10:34;;;;;;;3.10;2.67;;;;;;;;;;4964991;28;20077;-78
2022/06/05 09:12:59;;;;;;;;;;;;;;;;;;5013914;28;20602;-78
2022/06/05 09:15:26;;;;;;;3.40;3.10;;;;;;;;;;5030254;28;20008;-78
2022/06/05 09:17:59;;;;;;;3.42;2.55;;;;;;;;;;4997357;28;20044;-78
2022/06/05 09:20:51;;;;;;;3.38;2.63;;;;;;;;;;4997446;28;20592;-78
2022/06/05 09:23:31;;;;;;;3.20;2.30;;;;;;;;;;5001001;28;20046;-78
2022/06/05 09:26:45;;;;;;;3.42;3.00;;;;;;;;;;5000905;28;20635;-78
2022/06/05 09:29:35;;;;;;;2.97;2.55;;;;;;;;;;5032483;28;20116;-78
2022/06/05 09:32:30;;;;;;;3.97;2.70;;;;;;;;;;5034551;28;20438;-78
2022/06/05 09:34:58;;;;;;;3.17;2.33;;;;;;;;;;5034515;28;20076;-78
2022/06/05 09:37:35;;;;;;;2.70;2.30;;;;;;;;;;5016197;28;20044;-78
2022/06/05 09:40:08;;;;;;;3.50;2.53;;;;;;;;;;5016279;28;20033;-78
2022/06/05 09:42:51;;;;;;;3.53;2.97;;;;;;;;;;5017181;28;20076;-78
2022/06/05 09:45:23;;;;;;;3.22;2.45;;;;;;;;;;5033764;28;20040;-78
2022/06/05 09:48:12;;;;;;;3.30;2.50;;;;;;;;;;5000105;28;20099;-78
2022/06/05 09:50:37;;;;;;;3.42;2.83;;;;;;;;;;5032497;28;20148;-78
2022/06/05 09:53:03;;;;;;;4.35;2.70;;;;;;;;;;5016067;28;20476;-79
2022/06/05 09:55:58;;;;;;;3.20;2.25;;;;;;;;;;5015879;28;20041;-78
2022/06/05 09:58:48;;;;;;;2.65;2.20;;;;;;;;;;5018082;28;20053;-79
2022/06/05 10:01:29;;;;;;;3.05;2.30;;;;;;;;;;5013127;28;20060;-78
2022/06/05 10:03:56;;;;;;;3.45;2.53;;;;;;;;;;4996574;28;20041;-78
2022/06/05 10:06:42;;;;;;;3.55;2.05;;;;;;;;;;4996274;28;20030;-78
2022/06/05 10:09:15;;;;;;;3.20;2.55;;;;;;;;;;4996281;28;20045;-78
2022/06/05 10:12:01;;;;;;;3.05;2.22;;;;;;;;;;4995451;28;20453;-78
2022/06/05 10:14:50;;;;;;;3.97;2.45;;;;;;;;;;4995571;28;20052;-78
2022/06/05 10:17:27;;;;;;;2.90;2.53;;;;;;;;;;4980186;28;20585;-78
2022/06/05 10:20:11;;;;;;;3.05;2.38;;;;;;;;;;5029147;28;20053;-77
2022/06/05 10:22:39;;;;;;;2.92;2.30;;;;;;;;;;5013481;28;20109;-78
2022/06/05 10:25:14;;;;;;;4.10;2.33;;;;;;;;;;5012035;28;20034;-78
2022/06/05 10:27:59;;;;;;;3.25;2.17;;;;;;;;;;5045190;28;20041;-79
2022/06/05 10:30:31;;;;;;;3.10;2.03;;;;;;;;;;5017622;28;20060;-78
2022/06/05 10:33:04;;;;;;;2.85;1.95;;;;;;;;;;5016375;28;20582;-78
2022/06/05 10:35:35;;;;;;;2.78;2.17;;;;;;;;;;5032155;28;20037;-78
2022/06/05 10:38:24;;;;;;;3.53;2.00;;;;;;;;;;5031568;28;20079;-78
2022/06/05 10:40:53;;;;;;;2.45;2.03;;;;;;;;;;5022195;28;20073;-79
2022/06/05 10:43:24;;;;;;;3.55;2.30;;;;;;;;;;5015995;28;20041;-78
2022/06/05 10:45:52;;;;;;;2.65;2.17;;;;;;;;;;5014904;28;20558;-78
2022/06/05 10:48:40;;;;;;;2.92;2.33;;;;;;;;;;5015651;28;20029;-78
2022/06/05 10:51:15;;;;;;;2.10;1.55;;;;;;;;;;5014587;28;20043;-78
2022/06/05 10:53:47;;;;;;;2.92;2.30;;;;;;;;;;5015029;28;20385;-78
2022/06/05 10:56:18;;;;;;;2.40;2.10;;;;;;;;;;5011667;28;20503;-78
2022/06/05 10:58:52;;;;;;;4.03;2.20;;;;;;;;;;5011815;28;20038;-78
2022/06/05 11:01:57;;;;;;;2.90;2.20;;;;;;;;;;5001236;28;20482;-77
2022/06/05 11:04:29;;;;;;;4.50;2.55;;;;;;;;;;5011443;28;20038;-78
2022/06/05 11:07:04;;;;;;;3.08;2.53;;;;;;;;;;5011475;28;20046;-78
2022/06/05 11:10:15;;;;;;;2.63;1.90;;;;;;;;;;5027590;28;20048;-78
2022/06/05 11:16:01;;;;;;;3.05;2.13;;;;;;;;;;5028210;28;20041;-78
2022/06/05 11:18:41;;;;;;;2.95;2.00;;;;;;;;;;4997082;28;20516;-78
2022/06/05 11:21:06;;;;;;;2.53;2.15;;;;;;;;;;5011585;28;20567;-78
2022/06/05 11:23:37;;;;;;;1.92;1.52;;;;;;;;;;5010505;28;20038;-77
2022/06/05 11:26:12;;;;;;;3.03;2.10;;;;;;;;;;5014438;28;20511;-77
2022/06/05 11:28:50;;;;;;;2.20;1.70;;;;;;;;;;5014069;28;20088;-77
2022/06/05 11:31:34;;;;;;;2.75;1.70;;;;;;;;;;5014939;28;20048;-77
2022/06/05 11:34:35;;;;;;;2.67;2.13;;;;;;;;;;5030930;28;20056;-78
2022/06/05 11:37:23;;;;;;;2.80;1.58;;;;;;;;;;5026480;28;20156;-78
2022/06/05 11:40:04;;;;;;;2.83;2.00;;;;;;;;;;5030539;28;20038;-78
2022/06/05 11:42:37;;;;;;;2.10;1.70;;;;;;;;;;5030722;28;20076;-77
2022/06/05 11:45:14;;;;;;;2.53;2.22;;;;;;;;;;5014367;28;20033;-77
2022/06/05 11:47:55;;;;;;;3.42;1.88;;;;;;;;;;5031423;28;20480;-78
2022/06/05 11:50:25;;;;;;;2.38;1.88;;;;;;;;;;5016028;28;20404;-78
2022/06/05 11:52:54;;;;;;;2.78;2.00;;;;;;;;;;5030324;28;20042;-79
2022/06/05 11:55:33;;;;;;;2.08;1.85;;;;;;;;;;5014548;28;20037;-81
2022/06/05 11:58:01;;;;;;;2.45;1.70;;;;;;;;;;4995636;28;20030;-79
2022/06/05 12:00:36;;;;;;;2.78;1.85;;;;;;;;;;4994788;28;20045;-78
2022/06/05 12:03:21;;;;;;;3.03;2.20;;;;;;;;;;5011066;28;20091;-79
2022/06/05 12:06:01;;;;;;;2.75;2.00;;;;;;;;;;5010391;28;20424;-79
2022/06/05 12:08:31;;;;;;;2.97;2.10;;;;;;;;;;4978022;28;20129;-80
2022/06/05 12:11:14;;;;;;;3.42;2.03;;;;;;;;;;4994202;28;20041;-80
2022/06/05 12:13:45;;;;;;;2.67;1.85;;;;;;;;;;4979411;28;20541;-80
2022/06/05 12:16:27;;;;;;;3.87;2.23;;;;;;;;;;5010308;28;20088;-80
2022/06/05 12:19:31;;;;;;;2.97;1.88;;;;;;;;;;4994589;28;20038;-80
2022/06/05 12:22:05;;;;;;;3.10;1.85;;;;;;;;;;5011658;28;20101;-79
2022/06/05 12:24:32;;;;;;;3.75;2.13;;;;;;;;;;4978649;28;20520;-79
2022/06/05 12:27:01;;;;;;;2.95;1.98;;;;;;;;;;5021132;28;20402;-79
2022/06/05 12:29:31;;;;;;;3.58;2.13;;;;;;;;;;5013840;28;20033;-80
2022/06/05 12:32:27;;;;;;;2.90;1.73;;;;;;;;;;5030333;28;20049;-80
2022/06/05 12:35:15;;;;;;;5.03;2.08;;;;;;;;;;5029370;28;20121;-81
2022/06/05 12:37:51;;;;;;;3.50;1.98;;;;;;;;;;5017253;28;20045;-81
2022/06/05 12:40:53;;;;;;;3.63;2.28;;;;;;;;;;5018266;28;20050;-81
2022/06/05 12:43:24;;;;;;;;;;;;;;;;;;5016881;28;20095;-81
2022/06/05 12:45:53;;;;;;;6.28;2.25;;;;;;;;;;5017086;28;19955;-80
2022/06/05 12:48:23;;;;;;;4.20;2.33;;;;;;;;;;5017477;28;20037;-80
2022/06/05 12:50:59;;;;;;;4.22;2.05;;;;;;;;;;5017571;28;20095;-80
2022/06/05 12:53:46;;;;;;;5.07;2.60;;;;;;;;;;5000716;28;20084;-79
2022/06/05 12:56:15;;;;;;;4.03;2.25;;;;;;;;;;5015160;28;20084;-79
2022/06/05 12:59:04;;;;;;;2.22;1.60;;;;;;;;;;5014053;28;20399;-79
2022/06/05 13:01:46;;;;;;;3.03;2.03;;;;;;;;;;5027093;28;20581;-79
2022/06/05 13:04:25;;;;;;;3.75;1.88;;;;;;;;;;5018920;28;20044;-79
2022/06/05 13:07:29;;;;;;;6.22;2.25;;;;;;;;;;5033590;28;20045;-79
2022/06/05 13:09:59;;;;;;;3.67;1.60;;;;;;;;;;5009905;28;20171;-79
2022/06/05 13:12:45;;;;;;;4.53;2.03;;;;;;;;;;5000535;28;20041;-79
2022/06/05 13:15:20;;;;;;;4.72;2.10;;;;;;;;;;5000925;28;20044;-79
2022/06/05 13:18:06;;;;;;;7.90;3.03;;;;;;;;;;5016850;28;20076;-78
2022/06/05 13:20:50;;;;;;;3.50;2.20;;;;;;;;;;5019648;28;20492;-78
2022/06/05 13:23:26;;;;;;;3.45;2.05;;;;;;;;;;5016464;28;20045;-78
2022/06/05 13:26:19;;;;;;;3.50;1.90;;;;;;;;;;5031544;28;20526;-78
2022/06/05 13:28:49;;;;;;;2.80;1.80;;;;;;;;;;5014389;28;20045;-80
2022/06/05 13:31:43;;;;;;;2.90;2.30;;;;;;;;;;4997754;28;20038;-79
2022/06/05 13:34:08;;;;;;;3.65;1.90;;;;;;;;;;5013537;28;20041;-79
2022/06/05 13:36:41;;;;;;;3.55;1.95;;;;;;;;;;5013194;28;20041;-80
2022/06/05 13:39:22;;;;;;;3.33;2.20;;;;;;;;;;4997487;28;20046;-80
2022/06/05 13:42:02;;;;;;;2.75;2.20;;;;;;;;;;4997337;28;20049;-80
2022/06/05 13:44:29;;;;;;;2.95;1.90;;;;;;;;;;4980653;28;20034;-80
2022/06/05 13:47:26;;;;;;;2.92;2.15;;;;;;;;;;4995949;28;20508;-79
2022/06/05 13:50:10;;;;;;;3.78;2.53;;;;;;;;;;5012087;28;20033;-79
2022/06/05 13:53:14;;;;;;;4.38;2.95;;;;;;;;;;5052548;28;20629;-79
2022/06/05 13:56:28;;;;;;;3.90;2.15;;;;;;;;;;5049986;28;20041;-79
2022/06/05 13:59:40;;;;;;;3.22;2.83;;;;;;;;;;5016368;28;20033;-79
2022/06/05 14:02:20;;;;;;;3.00;2.37;;;;;;;;;;5023838;28;20511;-79
2022/06/05 14:05:12;;;;;;;4.57;2.75;;;;;;;;;;5017435;28;20113;-80
2022/06/05 14:08:02;;;;;;;2.93;2.07;;;;;;;;;;5000503;28;20041;-80
2022/06/05 14:10:30;;;;;;;4.50;3.00;;;;;;;;;;5016185;28;20049;-79
2022/06/05 14:12:59;;;;;;;4.78;2.53;;;;;;;;;;5015908;28;20052;-79
2022/06/05 14:15:46;;;;;;;4.20;2.58;;;;;;;;;;5016419;28;20080;-79
2022/06/05 14:18:46;;;;;;;3.10;2.80;;;;;;;;;;5032420;28;20040;-79
2022/06/05 14:21:20;;;;;;;3.92;2.90;;;;;;;;;;5015662;28;20059;-79
2022/06/05 14:23:46;;;;;;;3.40;2.83;;;;;;;;;;5015155;28;20499;-79
2022/06/05 14:26:12;;;;;;;3.65;2.58;;;;;;;;;;4995113;28;20030;-79
2022/06/05 14:28:40;;;;;;;3.60;2.85;;;;;;;;;;4979489;28;20406;-79
2022/06/05 14:31:14;;;;;;;3.47;2.72;;;;;;;;;;4996086;28;20479;-79
2022/06/05 14:33:42;;;;;;;4.47;3.05;;;;;;;;;;4995892;28;20464;-79
2022/06/05 14:36:08;;;;;;;4.03;2.97;;;;;;;;;;4996037;28;20488;-78
2022/06/05 14:38:43;;;;;;;4.95;3.22;;;;;;;;;;4995528;28;20034;-78
2022/06/05 14:41:19;;;;;;;3.80;3.40;;;;;;;;;;4995255;28;20046;-78
2022/06/05 14:43:54;;;;;;;3.60;3.17;;;;;;;;;;4979009;28;20034;-78
2022/06/05 14:46:26;;;;;;;3.55;2.65;;;;;;;;;;4995593;28;20061;-79
2022/06/05 14:48:58;;;;;;;4.22;3.78;;;;;;;;;;5013083;28;20045;-77
2022/06/05 14:51:27;;;;;;;3.83;2.88;;;;;;;;;;5034278;28;20044;-78
2022/06/05 14:54:13;;;;;;;3.45;3.15;;;;;;;;;;5051310;28;20116;-78
2022/06/05 14:59:36;;;;;;;3.72;3.20;;;;;;;;;;4998034;28;20037;-78
2022/06/05 15:02:35;;;;;;;3.67;3.05;;;;;;;;;;5024453;28;20104;-78
2022/06/05 15:05:23;;;;;;;6.40;2.97;;;;;;;;;;5031145;28;20042;-78
2022/06/05 15:07:52;;;;;;;4.00;3.10;;;;;;;;;;5030937;28;20116;-78
2022/06/05 15:10:46;;;;;;;3.75;2.97;;;;;;;;;;4998581;28;20034;-78
2022/06/05 15:13:30;;;;;;;4.85;3.72;;;;;;;;;;5014745;28;20041;-79
2022/06/05 15:16:04;;;;;;;3.55;3.25;;;;;;;;;;5014905;28;20037;-79
2022/06/05 15:18:31;;;;;;;3.67;3.00;;;;;;;;;;4999101;28;20506;-79
2022/06/05 15:21:20;;;;;;;3.60;3.20;;;;;;;;;;5014788;28;20045;-79
2022/06/05 15:23:51;;;;;;;3.63;3.20;;;;;;;;;;5031758;28;20037;-80
2022/06/05 15:26:47;;;;;;;5.43;3.50;;;;;;;;;;5009673;28;20065;-78
2022/06/05 15:29:14;;;;;;;3.13;2.80;;;;;;;;;;5012341;28;20030;-78
2022/06/05 15:31:50;;;;;;;4.13;3.20;;;;;;;;;;5011103;28;20037;-78
2022/06/05 15:34:29;;;;;;;3.42;2.95;;;;;;;;;;5011070;28;20045;-79
2022/06/05 15:37:09;;;;;;;3.20;2.83;;;;;;;;;;5011101;28;20048;-78